Time;durP1;ratioP1;P1;durP2;ratioP2;P2;SDS_P1;SDS_P2;PMS_P1;PMS_P2;Temp;Humidity;BMP_temperature;BMP_pressure;BME280_temperature;BME280_humidity;BME280_pressure;Samples;Min_cycle;Max_cycle;Signal;HPM_P1;HPM_P2
2022/08/11 00:01:43;;;;;;;2.10;1.90;;;;;;;;;;5076709;27;20230;-52
2022/08/11 00:04:12;;;;;;;5.22;2.40;;;;;;;;;;5086478;27;20272;-53
2022/08/11 00:06:39;;;;;;;2.65;2.42;;;;;;;;;;5078313;27;20231;-52
2022/08/11 00:09:07;;;;;;;7.22;2.03;;;;;;;;;;5076072;27;20254;-52
2022/08/11 00:11:35;;;;;;;3.17;2.40;;;;;;;;;;5081884;27;20231;-58
2022/08/11 00:14:01;;;;;;;2.40;2.20;;;;;;;;;;5070038;27;20231;-51
2022/08/11 00:16:28;;;;;;;3.13;2.50;;;;;;;;;;5085389;27;20227;-54
2022/08/11 00:18:57;;;;;;;3.83;2.33;;;;;;;;;;5081709;27;20256;-53
2022/08/11 00:21:24;;;;;;;2.58;1.98;;;;;;;;;;5081399;27;20246;-52
2022/08/11 00:23:53;;;;;;;2.65;2.45;;;;;;;;;;5082732;27;20230;-52
2022/08/11 00:26:21;;;;;;;3.33;2.47;;;;;;;;;;5079933;27;20731;-51
2022/08/11 00:28:47;;;;;;;3.05;2.40;;;;;;;;;;5080042;27;20513;-52
2022/08/11 00:31:20;;;;;;;4.65;2.97;;;;;;;;;;5080945;27;20716;-53
2022/08/11 00:33:48;;;;;;;3.70;3.40;;;;;;;;;;5082156;27;20236;-51
2022/08/11 00:36:17;;;;;;;7.95;7.15;;;;;;;;;;5078403;27;20237;-52
2022/08/11 00:38:45;;;;;;;9.02;6.22;;;;;;;;;;5083825;27;20226;-53
2022/08/11 00:41:15;;;;;;;8.30;3.90;;;;;;;;;;5077361;27;20234;-52
2022/08/11 00:43:49;;;;;;;4.45;3.67;;;;;;;;;;5085122;27;20226;-52
2022/08/11 00:46:18;;;;;;;3.67;3.38;;;;;;;;;;5079849;27;20758;-52
2022/08/11 00:48:59;;;;;;;3.63;3.17;;;;;;;;;;5079110;27;20226;-53
2022/08/11 00:51:36;;;;;;;3.72;3.42;;;;;;;;;;5080399;27;20241;-53
2022/08/11 00:54:06;;;;;;;3.85;3.55;;;;;;;;;;5082381;27;20230;-53
2022/08/11 00:57:03;;;;;;;8.45;3.38;;;;;;;;;;5077703;27;20218;-52
2022/08/11 00:59:44;;;;;;;3.78;3.38;;;;;;;;;;5075645;27;20227;-54
2022/08/11 01:02:15;;;;;;;3.50;3.20;;;;;;;;;;5073190;27;20236;-53
2022/08/11 01:05:03;;;;;;;4.20;3.38;;;;;;;;;;5077978;27;20227;-52
2022/08/11 01:07:47;;;;;;;3.33;3.13;;;;;;;;;;5075671;27;20222;-52
2022/08/11 01:10:37;;;;;;;4.38;3.42;;;;;;;;;;5069504;27;20234;-52
2022/08/11 01:13:09;;;;;;;3.65;3.35;;;;;;;;;;5080350;27;20245;-51
2022/08/11 01:16:02;;;;;;;5.53;3.75;;;;;;;;;;5081113;28;20229;-53
2022/08/11 01:18:49;;;;;;;3.83;3.53;;;;;;;;;;5059869;27;20246;-52
2022/08/11 01:21:25;;;;;;;4.55;3.70;;;;;;;;;;5082518;27;20234;-52
2022/08/11 01:24:14;;;;;;;3.50;3.20;;;;;;;;;;5086352;27;20226;-53
2022/08/11 01:26:56;;;;;;;7.22;3.85;;;;;;;;;;5086405;27;20275;-53
2022/08/11 01:29:47;;;;;;;5.70;3.90;;;;;;;;;;5079922;27;20233;-53
2022/08/11 01:32:48;;;;;;;3.75;2.85;;;;;;;;;;5080894;27;20231;-52
2022/08/11 01:35:30;;;;;;;4.00;3.00;;;;;;;;;;5077038;27;20234;-53
2022/08/11 01:38:22;;;;;;;4.80;3.17;;;;;;;;;;5083771;27;20227;-52
2022/08/11 01:40:56;;;;;;;6.13;3.20;;;;;;;;;;5075546;27;20238;-52
2022/08/11 01:46:27;;;;;;;4.95;2.75;;;;;;;;;;5083810;27;20278;-53
2022/08/11 01:49:08;;;;;;;4.88;2.60;;;;;;;;;;5083629;27;20234;-53
2022/08/11 01:51:55;;;;;;;7.03;2.70;;;;;;;;;;5073439;27;20227;-53
2022/08/11 01:54:25;;;;;;;4.13;2.92;;;;;;;;;;5072728;27;20227;-54
2022/08/11 01:57:02;;;;;;;3.30;2.33;;;;;;;;;;5081977;27;20603;-52
2022/08/11 01:59:32;;;;;;;2.92;2.25;;;;;;;;;;5075818;28;20229;-53
2022/08/11 02:02:05;;;;;;;3.47;2.60;;;;;;;;;;5080229;27;20260;-53
2022/08/11 02:04:35;;;;;;;4.78;2.67;;;;;;;;;;5078418;27;20229;-54
2022/08/11 02:07:09;;;;;;;3.15;2.03;;;;;;;;;;5085165;27;20255;-53
2022/08/11 02:09:43;;;;;;;3.40;2.60;;;;;;;;;;5081575;27;20233;-53
2022/08/11 02:12:13;;;;;;;2.95;2.75;;;;;;;;;;5075694;28;20736;-53
2022/08/11 02:14:43;;;;;;;2.65;2.03;;;;;;;;;;5074412;27;20214;-54
2022/08/11 02:17:13;;;;;;;3.20;2.38;;;;;;;;;;5079839;27;20231;-53
2022/08/11 02:25:23;;;;;;;3.80;2.92;;;;;;;;;;5083554;27;20306;-52
2022/08/11 02:27:52;;;;;;;4.20;2.33;;;;;;;;;;5081315;27;20237;-52
2022/08/11 02:30:23;;;;;;;3.00;2.70;;;;;;;;;;5080010;27;20239;-52
2022/08/11 02:35:44;;;;;;;3.03;2.75;;;;;;;;;;5078973;28;20229;-54
2022/08/11 02:38:27;;;;;;;2.33;2.10;;;;;;;;;;5070663;28;20605;-53
2022/08/11 02:40:59;;;;;;;3.40;2.38;;;;;;;;;;5076512;28;20244;-53
2022/08/11 02:43:39;;;;;;;2.45;2.25;;;;;;;;;;5080881;28;20237;-53
2022/08/11 02:46:16;;;;;;;4.10;3.10;;;;;;;;;;5080205;28;20235;-53
2022/08/11 02:51:35;;;;;;;3.53;3.05;;;;;;;;;;5084442;28;20360;-52
2022/08/11 02:54:10;;;;;;;12.55;2.72;;;;;;;;;;5080340;28;20256;-52
2022/08/11 02:56:50;;;;;;;3.20;2.97;;;;;;;;;;5077762;28;20225;-52
2022/08/11 03:02:10;;;;;;;2.17;2.08;;;;;;;;;;5082252;28;20237;-53
2022/08/11 03:04:43;;;;;;;2.83;2.47;;;;;;;;;;5075737;28;20234;-53
2022/08/11 03:07:17;;;;;;;5.70;3.60;;;;;;;;;;5071248;28;20952;-53
2022/08/11 03:09:50;;;;;;;3.70;2.67;;;;;;;;;;5084702;28;20226;-54
2022/08/11 03:18:02;;;;;;;6.20;3.40;;;;;;;;;;5085179;28;20233;-53
2022/08/11 03:20:33;;;;;;;2.47;2.22;;;;;;;;;;5079464;28;20276;-52
2022/08/11 03:23:04;;;;;;;4.13;2.50;;;;;;;;;;5083799;28;20421;-52
2022/08/11 03:25:45;;;;;;;3.63;2.50;;;;;;;;;;5084236;28;20292;-53
2022/08/11 03:28:21;;;;;;;8.13;3.42;;;;;;;;;;5079801;28;20238;-55
2022/08/11 03:30:51;;;;;;;3.42;2.65;;;;;;;;;;5081373;28;20230;-53
2022/08/11 03:36:12;;;;;;;5.63;2.60;;;;;;;;;;5077591;28;20307;-53
2022/08/11 03:38:45;;;;;;;8.32;2.90;;;;;;;;;;5076744;28;20226;-52
2022/08/11 03:44:07;;;;;;;5.85;2.92;;;;;;;;;;5074735;28;20822;-53
2022/08/11 03:46:44;;;;;;;3.15;2.72;;;;;;;;;;5079191;28;20223;-53
2022/08/11 03:49:19;;;;;;;4.70;2.60;;;;;;;;;;5080324;28;20730;-52
2022/08/11 03:51:50;;;;;;;5.07;2.78;;;;;;;;;;5088118;28;20230;-53
2022/08/11 03:54:28;;;;;;;2.88;2.67;;;;;;;;;;5074230;28;20231;-53
2022/08/11 03:57:13;;;;;;;4.45;3.10;;;;;;;;;;5066057;28;20279;-53
2022/08/11 03:59:52;;;;;;;6.32;3.08;;;;;;;;;;5074628;28;20675;-53
2022/08/11 04:02:38;;;;;;;3.95;3.00;;;;;;;;;;5074166;28;20231;-53
2022/08/11 04:05:26;;;;;;;4.75;2.97;;;;;;;;;;5071105;28;20231;-53
2022/08/11 04:08:07;;;;;;;3.97;2.47;;;;;;;;;;5079867;28;20219;-54
2022/08/11 04:10:59;;;;;;;3.70;3.15;;;;;;;;;;5073066;28;20223;-52
2022/08/11 04:13:40;;;;;;;3.22;2.67;;;;;;;;;;5074387;28;20230;-53
2022/08/11 04:16:28;;;;;;;2.63;2.40;;;;;;;;;;5076112;28;20291;-53
2022/08/11 04:19:18;;;;;;;4.50;2.92;;;;;;;;;;5078800;28;20265;-53
2022/08/11 04:21:52;;;;;;;2.88;2.67;;;;;;;;;;5080458;28;20225;-53
2022/08/11 04:24:36;;;;;;;2.78;2.58;;;;;;;;;;5071269;28;20243;-53
2022/08/11 04:27:21;;;;;;;4.78;3.10;;;;;;;;;;5080183;27;21074;-54
2022/08/11 04:29:57;;;;;;;5.82;3.05;;;;;;;;;;5073128;28;20276;-53
2022/08/11 04:32:38;;;;;;;7.07;2.95;;;;;;;;;;5071836;27;20276;-52
2022/08/11 04:35:22;;;;;;;4.88;3.05;;;;;;;;;;5074996;27;20230;-53
2022/08/11 04:38:08;;;;;;;5.47;3.28;;;;;;;;;;5076098;27;20222;-53
2022/08/11 04:40:43;;;;;;;3.53;2.65;;;;;;;;;;5077088;27;20230;-54
2022/08/11 04:43:45;;;;;;;4.88;3.10;;;;;;;;;;5073740;27;20230;-52
2022/08/11 04:46:26;;;;;;;4.45;3.08;;;;;;;;;;5079397;27;20762;-53
2022/08/11 05:05:29;;;;;;;7.97;3.58;;;;;;;;;;5078028;27;20269;-52
2022/08/11 05:07:19;;;;;;;7.68;3.67;;;;;;;;;;5078586;27;20789;-53
2022/08/11 05:09:58;;;;;;;4.85;3.30;;;;;;;;;;5070108;27;20858;-53
2022/08/11 05:12:29;;;;;;;3.20;2.90;;;;;;;;;;5079565;27;20242;-52
2022/08/11 05:37:07;;;;;;;4.47;3.58;;;;;;;;;;5086142;28;20768;-54
2022/08/11 05:56:19;;;;;;;5.85;4.53;;;;;;;;;;5080982;27;20237;-52
2022/08/11 05:58:47;;;;;;;4.88;4.45;;;;;;;;;;5080895;28;20226;-53
2022/08/11 06:01:14;;;;;;;5.10;4.00;;;;;;;;;;5074807;28;20236;-53
2022/08/11 06:06:24;;;;;;;8.18;4.35;;;;;;;;;;5070062;28;20222;-52
2022/08/11 06:08:55;;;;;;;5.13;4.43;;;;;;;;;;5081991;27;20230;-52
2022/08/11 06:11:21;;;;;;;6.22;4.28;;;;;;;;;;5083737;27;20333;-53
2022/08/11 06:13:48;;;;;;;7.80;4.50;;;;;;;;;;5080544;27;20227;-51
2022/08/11 06:16:21;;;;;;;5.10;4.55;;;;;;;;;;5082043;27;20225;-53
2022/08/11 06:18:49;;;;;;;5.93;4.32;;;;;;;;;;5076724;27;20306;-52
2022/08/11 06:21:17;;;;;;;4.82;4.32;;;;;;;;;;5081651;27;20230;-53
2022/08/11 06:23:44;;;;;;;4.53;4.13;;;;;;;;;;5080513;27;20728;-52
2022/08/11 06:26:11;;;;;;;4.90;4.35;;;;;;;;;;5082877;27;20234;-52
2022/08/11 06:28:38;;;;;;;5.95;4.03;;;;;;;;;;5077082;28;20230;-53
2022/08/11 06:31:11;;;;;;;7.75;5.13;;;;;;;;;;5081958;27;20242;-55
2022/08/11 06:33:45;;;;;;;8.45;4.55;;;;;;;;;;5077328;27;20218;-53
2022/08/11 06:36:15;;;;;;;9.38;3.97;;;;;;;;;;5076411;27;20227;-54
2022/08/11 06:38:49;;;;;;;8.10;3.90;;;;;;;;;;5079547;27;20242;-52
2022/08/11 06:41:31;;;;;;;4.85;4.32;;;;;;;;;;5081326;27;20607;-53
2022/08/11 06:44:04;;;;;;;4.35;3.80;;;;;;;;;;5080833;27;20245;-52
2022/08/11 06:46:31;;;;;;;4.70;4.28;;;;;;;;;;5070221;27;20234;-53
2022/08/11 06:49:01;;;;;;;7.93;4.45;;;;;;;;;;5079984;27;20237;-53
2022/08/11 06:51:27;;;;;;;4.85;3.70;;;;;;;;;;5075115;28;20234;-53
2022/08/11 06:53:56;;;;;;;4.35;3.95;;;;;;;;;;5068689;27;20226;-52
2022/08/11 07:01:57;;;;;;;4.90;3.63;;;;;;;;;;5077769;28;20238;-52
2022/08/11 07:04:29;;;;;;;7.85;4.72;;;;;;;;;;5076838;28;20243;-55
2022/08/11 07:15:41;;;;;;;6.20;3.72;;;;;;;;;;5073944;28;20244;-53
2022/08/11 07:29:09;;;;;;;6.22;3.40;;;;;;;;;;5076420;28;20237;-53
2022/08/11 07:31:40;;;;;;;7.28;3.75;;;;;;;;;;5066469;28;20261;-52
2022/08/11 07:34:12;;;;;;;12.70;4.32;;;;;;;;;;5080099;28;20241;-55
2022/08/11 07:36:39;;;;;;;4.22;3.53;;;;;;;;;;5078459;28;20307;-52
2022/08/11 07:39:08;;;;;;;4.90;3.42;;;;;;;;;;5070071;28;20223;-55
2022/08/11 07:41:34;;;;;;;6.82;4.20;;;;;;;;;;5065079;28;20241;-52
2022/08/11 07:44:07;;;;;;;8.73;3.97;;;;;;;;;;5080643;28;20321;-53
2022/08/11 07:54:48;;;;;;;6.78;4.20;;;;;;;;;;5068225;28;20230;-53
2022/08/11 08:19:14;;;;;;;6.68;3.78;;;;;;;;;;5079294;28;20437;-54
2022/08/11 08:21:41;;;;;;;6.60;3.17;;;;;;;;;;5083551;28;20242;-53
2022/08/11 08:24:08;;;;;;;6.15;3.92;;;;;;;;;;5074356;28;20954;-53
2022/08/11 08:32:06;;;;;;;4.35;3.92;;;;;;;;;;5081724;27;20283;-52
2022/08/11 08:34:33;;;;;;;7.07;4.55;;;;;;;;;;5082064;27;20241;-53
2022/08/11 08:36:59;;;;;;;4.50;3.63;;;;;;;;;;5077921;27;20238;-52
2022/08/11 08:39:26;;;;;;;3.90;3.00;;;;;;;;;;5085802;27;20242;-52
2022/08/11 08:41:55;;;;;;;6.28;3.42;;;;;;;;;;5081709;27;20238;-53
2022/08/11 08:44:23;;;;;;;9.13;3.45;;;;;;;;;;5077884;28;20783;-53
2022/08/11 08:46:50;;;;;;;5.03;3.92;;;;;;;;;;5079700;27;20230;-53
2022/08/11 08:49:18;;;;;;;3.67;2.97;;;;;;;;;;5079032;27;20889;-53
2022/08/11 08:51:45;;;;;;;4.47;3.65;;;;;;;;;;5081522;27;20245;-52
2022/08/11 08:54:14;;;;;;;4.20;3.17;;;;;;;;;;5084343;28;20246;-53
2022/08/11 08:56:41;;;;;;;6.63;3.92;;;;;;;;;;5078075;27;20234;-52
2022/08/11 08:59:11;;;;;;;4.80;4.32;;;;;;;;;;5076612;27;20256;-55
2022/08/11 09:01:40;;;;;;;4.28;3.40;;;;;;;;;;5078768;27;20245;-53
2022/08/11 09:04:07;;;;;;;7.90;3.13;;;;;;;;;;5074255;27;20242;-53
2022/08/11 09:06:34;;;;;;;3.97;3.55;;;;;;;;;;5080519;27;20264;-55
2022/08/11 09:09:00;;;;;;;4.03;3.45;;;;;;;;;;5076553;27;20231;-54
2022/08/11 09:14:12;;;;;;;3.55;3.25;;;;;;;;;;5080072;27;20259;-54
2022/08/11 09:16:39;;;;;;;3.53;2.90;;;;;;;;;;5073780;27;20231;-55
2022/08/11 09:19:07;;;;;;;4.68;2.92;;;;;;;;;;5069810;27;20235;-53
2022/08/11 09:21:33;;;;;;;3.08;2.78;;;;;;;;;;5078995;27;20731;-52
2022/08/11 09:26:59;;;;;;;3.15;2.88;;;;;;;;;;5072014;27;20233;-51
2022/08/11 09:29:27;;;;;;;4.05;3.00;;;;;;;;;;5082460;27;20883;-53
2022/08/11 09:31:54;;;;;;;3.25;2.92;;;;;;;;;;5078511;27;20227;-54
2022/08/11 09:34:21;;;;;;;7.63;3.50;;;;;;;;;;5082604;27;20612;-53
2022/08/11 09:45:20;;;;;;;3.55;3.17;;;;;;;;;;5002122;28;20990;-54
2022/08/11 09:47:46;;;;;;;4.15;2.58;;;;;;;;;;5037822;27;20230;-52
2022/08/11 09:50:14;;;;;;;3.25;2.28;;;;;;;;;;5081176;27;20238;-54
2022/08/11 09:52:41;;;;;;;3.22;2.75;;;;;;;;;;5066834;27;20719;-55
2022/08/11 09:55:11;;;;;;;2.80;2.60;;;;;;;;;;5078477;27;20249;-53
2022/08/11 10:00:28;;;;;;;3.25;2.60;;;;;;;;;;5071741;27;20456;-54
2022/08/11 10:02:55;;;;;;;3.17;2.85;;;;;;;;;;5068387;27;20227;-54
2022/08/11 10:08:08;;;;;;;6.88;3.30;;;;;;;;;;5081400;27;20229;-54
2022/08/11 10:10:36;;;;;;;3.90;2.33;;;;;;;;;;5074119;27;20234;-53
2022/08/11 10:13:04;;;;;;;6.07;2.53;;;;;;;;;;5079934;27;20259;-53
2022/08/11 10:15:35;;;;;;;2.72;2.40;;;;;;;;;;5078945;27;20809;-53
2022/08/11 10:20:49;;;;;;;4.22;3.10;;;;;;;;;;5075910;27;20238;-55
2022/08/11 10:28:44;;;;;;;4.05;2.80;;;;;;;;;;5078643;28;20279;-53
2022/08/11 10:34:00;;;;;;;6.18;2.63;;;;;;;;;;5078491;28;20321;-54
2022/08/11 10:36:26;;;;;;;5.50;2.47;;;;;;;;;;5073969;28;20708;-52
2022/08/11 10:38:53;;;;;;;3.20;2.67;;;;;;;;;;5074448;28;20237;-54
2022/08/11 10:44:04;;;;;;;6.15;2.67;;;;;;;;;;5068620;28;20237;-53
2022/08/11 10:49:17;;;;;;;5.28;3.33;;;;;;;;;;5079092;28;20773;-54
2022/08/11 10:59:58;;;;;;;5.55;2.72;;;;;;;;;;5071279;28;20241;-53
2022/08/11 11:02:27;;;;;;;3.17;2.88;;;;;;;;;;5074340;28;20240;-53
2022/08/11 11:04:59;;;;;;;5.93;3.38;;;;;;;;;;5074224;28;20230;-54
2022/08/11 11:07:30;;;;;;;3.05;2.85;;;;;;;;;;5076818;28;20233;-54
2022/08/11 11:09:57;;;;;;;3.35;3.05;;;;;;;;;;5074429;28;20230;-54
2022/08/11 11:17:56;;;;;;;3.83;3.20;;;;;;;;;;5067948;28;20244;-54
2022/08/11 11:20:23;;;;;;;3.70;2.30;;;;;;;;;;5076142;28;20246;-53
2022/08/11 11:22:51;;;;;;;2.90;2.70;;;;;;;;;;5080293;28;20712;-54
2022/08/11 11:25:21;;;;;;;3.65;3.17;;;;;;;;;;5066704;28;20233;-54
2022/08/11 11:27:56;;;;;;;3.00;2.72;;;;;;;;;;5073465;28;20230;-53
2022/08/11 11:30:27;;;;;;;4.85;2.50;;;;;;;;;;5078697;28;20232;-53
2022/08/11 11:33:03;;;;;;;4.63;3.20;;;;;;;;;;5072725;28;20234;-53
2022/08/11 11:35:36;;;;;;;5.10;2.85;;;;;;;;;;5068633;28;20239;-53
2022/08/11 11:38:02;;;;;;;6.32;3.13;;;;;;;;;;5077902;28;20258;-53
2022/08/11 11:40:29;;;;;;;3.58;2.97;;;;;;;;;;5073924;27;20226;-52
2022/08/11 11:42:57;;;;;;;6.40;2.85;;;;;;;;;;5077271;28;20253;-53
2022/08/11 11:45:24;;;;;;;2.45;2.25;;;;;;;;;;5079165;28;20319;-53
2022/08/11 11:47:52;;;;;;;3.80;2.72;;;;;;;;;;5075892;28;20235;-54
2022/08/11 11:50:24;;;;;;;3.15;2.83;;;;;;;;;;5076061;28;20243;-53
2022/08/11 11:52:51;;;;;;;5.43;2.42;;;;;;;;;;5073148;28;20725;-53
2022/08/11 11:55:18;;;;;;;2.70;2.50;;;;;;;;;;5067022;28;20594;-53
2022/08/11 12:03:13;;;;;;;2.80;2.60;;;;;;;;;;5078345;27;20228;-55
2022/08/11 12:05:43;;;;;;;2.05;1.88;;;;;;;;;;5077075;28;20238;-53
2022/08/11 12:08:15;;;;;;;2.70;2.50;;;;;;;;;;5075782;27;20309;-53
2022/08/11 12:10:43;;;;;;;5.10;2.30;;;;;;;;;;5078809;27;20234;-54
2022/08/11 12:15:54;;;;;;;3.33;2.80;;;;;;;;;;5074767;27;20287;-54
2022/08/11 12:18:21;;;;;;;3.42;2.35;;;;;;;;;;5081960;28;20233;-54
2022/08/11 12:20:49;;;;;;;2.50;2.25;;;;;;;;;;5079782;27;20236;-53
2022/08/11 12:28:44;;;;;;;4.65;2.83;;;;;;;;;;5073435;27;20239;-55
2022/08/11 12:31:11;;;;;;;2.67;2.47;;;;;;;;;;5078591;27;20248;-55
2022/08/11 12:33:39;;;;;;;3.28;2.33;;;;;;;;;;5073873;27;20240;-54
2022/08/11 12:36:09;;;;;;;3.78;2.95;;;;;;;;;;5077280;27;20225;-54
2022/08/11 12:38:36;;;;;;;3.05;2.70;;;;;;;;;;5079983;27;20246;-54
2022/08/11 12:46:32;;;;;;;5.68;2.40;;;;;;;;;;5068052;27;20265;-54
2022/08/11 12:51:58;;;;;;;4.32;2.30;;;;;;;;;;5070761;28;20233;-55
2022/08/11 12:54:27;;;;;;;4.72;2.22;;;;;;;;;;5078815;28;20250;-53
2022/08/11 13:05:12;;;;;;;2.33;2.13;;;;;;;;;;5064998;28;20296;-57
2022/08/11 13:07:41;;;;;;;3.95;2.25;;;;;;;;;;5077618;28;20780;-54
2022/08/11 13:10:09;;;;;;;7.28;2.80;;;;;;;;;;5074322;28;20230;-53
2022/08/11 13:12:47;;;;;;;3.95;2.90;;;;;;;;;;5076266;28;20230;-53
2022/08/11 13:15:16;;;;;;;3.00;2.53;;;;;;;;;;5079907;28;20613;-53
2022/08/11 13:17:43;;;;;;;2.28;2.08;;;;;;;;;;5081725;28;20600;-54
2022/08/11 13:20:11;;;;;;;2.97;2.53;;;;;;;;;;5086434;28;20234;-53
2022/08/11 13:22:38;;;;;;;3.72;2.05;;;;;;;;;;5082833;28;20225;-55
2022/08/11 13:25:07;;;;;;;2.28;2.08;;;;;;;;;;5083781;28;20242;-54
2022/08/11 13:27:34;;;;;;;2.30;2.00;;;;;;;;;;5079511;28;20244;-55
2022/08/11 13:32:45;;;;;;;3.13;2.10;;;;;;;;;;5077811;28;20260;-54
2022/08/11 13:35:13;;;;;;;3.40;2.80;;;;;;;;;;5077935;28;20240;-55
2022/08/11 13:37:40;;;;;;;5.15;2.45;;;;;;;;;;5081835;28;20233;-55
2022/08/11 13:40:09;;;;;;;4.35;2.92;;;;;;;;;;5078693;28;20323;-53
2022/08/11 13:42:36;;;;;;;3.63;2.60;;;;;;;;;;5074317;28;20222;-54
2022/08/11 13:45:03;;;;;;;2.70;2.25;;;;;;;;;;5070496;28;20606;-52
2022/08/11 13:47:29;;;;;;;2.47;2.28;;;;;;;;;;5077258;28;20552;-55
2022/08/11 13:49:56;;;;;;;2.50;2.28;;;;;;;;;;5073975;28;20230;-52
2022/08/11 13:52:23;;;;;;;3.08;2.42;;;;;;;;;;5079261;28;20229;-53
2022/08/11 13:54:52;;;;;;;2.50;2.03;;;;;;;;;;5082080;28;20225;-53
2022/08/11 13:57:20;;;;;;;4.72;2.30;;;;;;;;;;5079061;28;20234;-54
2022/08/11 13:59:52;;;;;;;3.28;1.98;;;;;;;;;;5080837;28;20238;-52
2022/08/11 14:02:21;;;;;;;2.17;2.00;;;;;;;;;;5077055;28;20284;-54
2022/08/11 14:04:50;;;;;;;2.63;1.98;;;;;;;;;;5072895;28;20234;-54
2022/08/11 14:07:18;;;;;;;2.50;2.30;;;;;;;;;;5081308;28;20230;-53
2022/08/11 14:09:45;;;;;;;2.42;2.05;;;;;;;;;;5077806;28;20242;-54
2022/08/11 14:15:00;;;;;;;3.53;2.38;;;;;;;;;;5073520;28;20227;-54
2022/08/11 14:17:28;;;;;;;6.95;2.25;;;;;;;;;;5082961;28;20231;-53
2022/08/11 14:19:56;;;;;;;2.40;1.90;;;;;;;;;;5080997;28;20708;-55
2022/08/11 14:22:21;;;;;;;2.70;2.17;;;;;;;;;;5076597;28;20316;-53
2022/08/11 14:24:48;;;;;;;3.63;2.10;;;;;;;;;;5074973;28;21977;-54
2022/08/11 14:27:16;;;;;;;3.03;1.77;;;;;;;;;;5073301;28;20239;-57
2022/08/11 14:29:42;;;;;;;2.35;2.00;;;;;;;;;;5075728;28;20234;-54
2022/08/11 14:32:11;;;;;;;1.83;1.73;;;;;;;;;;5079800;28;20238;-54
2022/08/11 14:34:40;;;;;;;3.22;1.92;;;;;;;;;;5083234;28;20218;-54
2022/08/11 14:37:09;;;;;;;3.50;1.95;;;;;;;;;;5073105;28;20229;-54
2022/08/11 14:39:40;;;;;;;1.88;1.75;;;;;;;;;;5077181;28;20234;-54
2022/08/11 14:47:47;;;;;;;7.95;1.90;;;;;;;;;;5053327;28;20222;-53
2022/08/11 14:50:16;;;;;;;2.00;1.80;;;;;;;;;;5072311;28;20261;-54
2022/08/11 14:52:45;;;;;;;3.25;1.70;;;;;;;;;;5071425;28;20226;-53
2022/08/11 14:57:56;;;;;;;1.90;1.58;;;;;;;;;;5072678;28;20226;-54
2022/08/11 15:00:23;;;;;;;4.82;1.80;;;;;;;;;;5075303;27;20248;-57
2022/08/11 15:05:35;;;;;;;6.03;1.58;;;;;;;;;;5072825;28;20256;-54
2022/08/11 15:08:02;;;;;;;2.38;1.60;;;;;;;;;;5074189;28;20238;-53
2022/08/11 15:10:29;;;;;;;2.30;2.05;;;;;;;;;;5070477;28;20242;-54
2022/08/11 15:12:56;;;;;;;1.60;1.50;;;;;;;;;;5071506;28;20446;-53
2022/08/11 15:18:10;;;;;;;1.60;1.50;;;;;;;;;;5071684;28;20327;-54
2022/08/11 15:26:06;;;;;;;1.88;1.33;;;;;;;;;;5073087;28;20773;-54
2022/08/11 15:39:36;;;;;;;1.20;1.20;;;;;;;;;;5072718;28;20287;-52
2022/08/11 15:47:38;;;;;;;3.30;1.30;;;;;;;;;;5066882;28;20339;-53
2022/08/11 15:50:07;;;;;;;1.65;1.30;;;;;;;;;;5056536;28;20262;-54
2022/08/11 15:52:37;;;;;;;2.38;1.60;;;;;;;;;;5062725;28;20241;-54
2022/08/11 15:55:06;;;;;;;1.98;1.75;;;;;;;;;;5050351;28;21389;-53
2022/08/11 16:05:49;;;;;;;1.67;1.58;;;;;;;;;;5077642;28;20726;-52
2022/08/11 16:08:21;;;;;;;1.60;1.50;;;;;;;;;;5072827;28;21118;-53
2022/08/11 16:10:47;;;;;;;3.33;2.08;;;;;;;;;;5076963;28;20655;-53
2022/08/11 16:16:14;;;;;;;3.63;1.50;;;;;;;;;;5077173;28;20355;-52
2022/08/11 16:18:45;;;;;;;1.33;1.23;;;;;;;;;;5056284;28;20259;-53
2022/08/11 16:21:15;;;;;;;1.50;1.40;;;;;;;;;;5054910;28;21004;-55
2022/08/11 16:23:43;;;;;;;1.58;1.48;;;;;;;;;;5054650;28;20230;-54
2022/08/11 16:26:10;;;;;;;2.05;1.42;;;;;;;;;;5053826;28;20233;-53
2022/08/11 16:28:38;;;;;;;1.08;1.08;;;;;;;;;;5051487;28;20713;-52
2022/08/11 16:31:09;;;;;;;1.67;1.58;;;;;;;;;;5052892;28;20594;-53
2022/08/11 16:33:36;;;;;;;1.60;1.50;;;;;;;;;;5056632;28;20231;-54
2022/08/11 16:38:49;;;;;;;1.25;1.17;;;;;;;;;;5050845;28;20273;-54
2022/08/11 16:46:58;;;;;;;1.88;1.30;;;;;;;;;;5049888;28;20249;-55
2022/08/11 16:46:59;;;;;;;1.63;1.52;;;;;;;;;;5054983;27;20245;-53
2022/08/11 16:49:26;;;;;;;1.30;1.20;;;;;;;;;;5059007;28;20231;-54
2022/08/11 16:51:53;;;;;;;2.58;1.60;;;;;;;;;;5055911;27;20238;-53
2022/08/11 16:54:20;;;;;;;1.52;1.42;;;;;;;;;;5057342;27;20235;-53
2022/08/11 16:56:48;;;;;;;1.42;1.33;;;;;;;;;;5059263;27;20228;-52
2022/08/11 16:59:16;;;;;;;2.28;2.05;;;;;;;;;;5058228;27;20234;-54
2022/08/11 17:01:44;;;;;;;2.42;1.83;;;;;;;;;;5061166;27;20238;-53
2022/08/11 17:18:02;;;;;;;2.72;2.53;;;;;;;;;;5056921;27;20265;-53
2022/08/11 17:20:29;;;;;;;2.95;2.05;;;;;;;;;;5058817;28;20227;-52
2022/08/11 17:25:42;;;;;;;1.95;1.85;;;;;;;;;;5058166;27;20250;-55
2022/08/11 17:28:10;;;;;;;1.92;1.73;;;;;;;;;;5055678;27;20734;-54
2022/08/11 17:36:07;;;;;;;3.00;1.83;;;;;;;;;;5062470;27;20714;-54
2022/08/11 17:38:35;;;;;;;3.72;2.20;;;;;;;;;;5058280;27;20226;-54
2022/08/11 17:49:19;;;;;;;1.95;1.80;;;;;;;;;;5057463;27;20237;-53
2022/08/11 18:00:01;;;;;;;2.17;1.77;;;;;;;;;;5054537;27;20605;-53
2022/08/11 18:05:14;;;;;;;2.08;1.88;;;;;;;;;;5057349;27;20288;-54
